KHOP/HOP METAR and TAF weather

Enter ICAO airport designator
Station Type Date Time Source
KHOP METAR 2021/07/27 21:56 UTC NOAA

KHOP 272156Z AUTO 01007KT 10SM CLR 33/20 A2998 RMK AO2 SLP148 T03270202


Station Type Date Time Source
KHOP Decoded METAR 2021/07/27 21:56 UTC NOAA

Fort Campbell U. S. Army Airfield, KY, United States (KHOP) 36-40N 087-30W 174M
Jul 27, 2021 - 05:56 PM EDT / 2021.07.27 2156 UTC
Wind: from the N (010 degrees) at 8 MPH (7 KT):0
Visibility: 10 mile(s):0
Sky conditions: clear
Temperature: 90.9 F (32.7 C)
Heat index: 94.8 F (34.9 C):1
Dew Point: 68.4 F (20.2 C)
Relative Humidity: 47%
Pressure (altimeter): 29.98 in. Hg (1015 hPa)
ob: KHOP 272156Z AUTO 01007KT 10SM CLR 33/20 A2998 RMK AO2 SLP148 T03270202
cycle: 22

Station Type Date Time Source
KHOP TAF 2021/07/27 16:06 UTC NOAA

TAF KHOP 271600Z 2716/2822 VRB06KT 9999 FEW045 QNH2998INS TX36/2720Z TN20/2811Z

Example: see airport list